createdAt,value
2018-02-25T00:00:56.892Z,0
2018-02-25T00:02:06.601Z,0
2018-02-25T00:03:16.296Z,0
2018-02-25T00:04:26.265Z,0
2018-02-25T00:05:35.983Z,0
2018-02-25T00:06:45.679Z,0
2018-02-25T00:07:55.649Z,0
2018-02-25T00:09:05.623Z,0
2018-02-25T00:10:15.575Z,0
2018-02-25T00:11:25.540Z,0
2018-02-25T00:12:35.247Z,0
2018-02-25T00:13:44.935Z,0
2018-02-25T00:14:54.895Z,0
2018-02-25T00:16:04.587Z,0
2018-02-25T00:17:14.281Z,0
2018-02-25T00:18:24.250Z,0
2018-02-25T00:19:34.215Z,0
2018-02-25T00:20:44.175Z,0
2018-02-25T00:21:54.185Z,0
2018-02-25T00:23:04.127Z,0
2018-02-25T00:24:14.086Z,0
2018-02-25T00:25:24.046Z,0
2018-02-25T00:26:33.749Z,0
2018-02-25T00:27:43.449Z,0
2018-02-25T00:28:53.396Z,0
2018-02-25T00:30:02.833Z,0
2018-02-25T00:31:12.268Z,0
2018-02-25T00:32:22.231Z,0
2018-02-25T00:33:31.935Z,0
2018-02-25T00:34:41.899Z,0
2018-02-25T00:35:51.601Z,0
2018-02-25T00:37:01.564Z,0
2018-02-25T00:38:11.525Z,0
2018-02-25T00:39:21.209Z,0
2018-02-25T00:40:30.662Z,0
2018-02-25T00:41:40.619Z,0
2018-02-25T00:42:50.319Z,0
2018-02-25T00:44:00.012Z,0
2018-02-25T00:45:09.718Z,0
2018-02-25T00:46:19.690Z,0
2018-02-25T00:47:28.864Z,0
2018-02-25T00:48:38.824Z,0
2018-02-25T00:49:48.510Z,0
2018-02-25T00:50:58.465Z,0
2018-02-25T00:52:07.898Z,0
2018-02-25T00:53:17.342Z,0
2018-02-25T00:54:27.051Z,0
2018-02-25T00:55:36.502Z,0
2018-02-25T00:56:46.189Z,0
2018-02-25T00:57:56.140Z,0
2018-02-25T00:59:05.851Z,0
2018-02-25T01:00:15.556Z,0
2018-02-25T01:01:25.256Z,0
2018-02-25T01:02:34.682Z,0
2018-02-25T01:03:44.383Z,0
2018-02-25T01:04:54.079Z,0
2018-02-25T01:06:04.028Z,0
2018-02-25T01:07:13.782Z,0
2018-02-25T01:08:23.475Z,0
2018-02-25T01:09:33.167Z,0
2018-02-25T01:10:42.855Z,0
2018-02-25T01:11:52.555Z,0
2018-02-25T01:13:02.258Z,0
2018-02-25T01:14:11.968Z,0
2018-02-25T01:15:21.929Z,0
2018-02-25T01:16:31.892Z,0
2018-02-25T01:17:41.573Z,0
2018-02-25T01:18:51.008Z,0
2018-02-25T01:20:00.966Z,0
2018-02-25T01:21:10.668Z,0
2018-02-25T01:22:20.356Z,0
2018-02-25T01:23:30.302Z,0
2018-02-25T01:24:39.994Z,0
2018-02-25T01:25:49.677Z,0
2018-02-25T01:26:58.861Z,0
2018-02-25T01:28:08.816Z,0
2018-02-25T01:29:18.265Z,0
2018-02-25T01:30:27.965Z,0
2018-02-25T01:31:37.932Z,0
2018-02-25T01:32:47.098Z,0
2018-02-25T01:33:56.540Z,0
2018-02-25T01:35:06.228Z,0
2018-02-25T01:36:16.182Z,0
2018-02-25T01:37:25.875Z,0
2018-02-25T01:38:35.561Z,0
2018-02-25T01:39:45.506Z,0
2018-02-25T01:40:55.471Z,0
2018-02-25T01:42:04.904Z,0
2018-02-25T01:43:14.085Z,0
2018-02-25T01:44:24.043Z,0
2018-02-25T01:45:33.747Z,0
2018-02-25T01:46:43.446Z,0
2018-02-25T01:47:53.393Z,0
2018-02-25T01:49:03.118Z,0
2018-02-25T01:50:13.069Z,0
2018-02-25T01:51:22.762Z,0
2018-02-25T01:52:32.197Z,0
2018-02-25T01:53:42.149Z,0
2018-02-25T01:54:52.093Z,0
2018-02-25T01:56:01.783Z,0
2018-02-25T01:57:11.211Z,0
2018-02-25T01:58:20.909Z,0
2018-02-25T01:59:30.746Z,0
2018-02-25T02:00:40.711Z,0
2018-02-25T02:01:50.821Z,0
2018-02-25T02:03:00.783Z,0
2018-02-25T02:04:10.479Z,0
2018-02-25T02:05:20.190Z,0
2018-02-25T02:06:29.890Z,0
2018-02-25T02:07:39.584Z,0
2018-02-25T02:08:49.012Z,0
2018-02-25T02:09:58.719Z,0
2018-02-25T02:11:07.887Z,0
2018-02-25T02:12:17.317Z,0
2018-02-25T02:13:27.293Z,0
2018-02-25T02:14:36.984Z,0
2018-02-25T02:15:46.935Z,0
2018-02-25T02:16:56.891Z,0
2018-02-25T02:18:06.581Z,0
2018-02-25T02:19:16.284Z,0
2018-02-25T02:20:26.247Z,0
2018-02-25T02:21:36.200Z,0
2018-02-25T02:22:46.152Z,0
2018-02-25T02:23:56.146Z,0
2018-02-25T02:25:05.828Z,0
2018-02-25T02:26:15.530Z,0
2018-02-25T02:27:25.223Z,0
2018-02-25T02:28:34.390Z,0
2018-02-25T02:29:44.341Z,0
2018-02-25T02:30:54.056Z,0
2018-02-25T02:32:04.045Z,0
2018-02-25T02:33:13.747Z,0
2018-02-25T02:34:23.705Z,0
2018-02-25T02:35:33.405Z,0
2018-02-25T02:36:42.946Z,0
2018-02-25T02:37:52.657Z,0
2018-02-25T02:39:02.360Z,0
2018-02-25T02:40:12.330Z,0
2018-02-25T02:41:22.031Z,0
2018-02-25T02:42:31.724Z,0
2018-02-25T02:43:41.810Z,0
2018-02-25T02:44:51.766Z,0
2018-02-25T02:46:01.209Z,0
2018-02-25T02:47:10.646Z,0
2018-02-25T02:48:20.606Z,0
2018-02-25T02:49:30.557Z,0
2018-02-25T02:50:39.998Z,0
2018-02-25T02:51:49.953Z,0
2018-02-25T02:52:59.644Z,0
2018-02-25T02:54:09.612Z,0
2018-02-25T02:55:19.603Z,0
2018-02-25T02:56:29.303Z,0
2018-02-25T02:57:38.997Z,0
2018-02-25T02:58:48.708Z,0
2018-02-25T02:59:58.407Z,0
2018-02-25T03:01:07.846Z,0
2018-02-25T03:02:17.570Z,0
2018-02-25T03:03:27.272Z,0
2018-02-25T03:04:37.270Z,0
2018-02-25T03:05:47.231Z,0
2018-02-25T03:06:57.188Z,0
2018-02-25T03:08:06.897Z,0
2018-02-25T03:09:16.583Z,0
2018-02-25T03:10:26.542Z,0
2018-02-25T03:11:36.485Z,0
2018-02-25T03:12:46.423Z,0
2018-02-25T03:13:55.600Z,0
2018-02-25T03:15:05.305Z,0
2018-02-25T03:16:15.265Z,0
2018-02-25T03:17:25.211Z,0
2018-02-25T03:18:34.642Z,0
2018-02-25T03:19:44.332Z,0
2018-02-25T03:20:54.020Z,0
2018-02-25T03:22:03.967Z,0
2018-02-25T03:23:13.646Z,0
2018-02-25T03:24:23.602Z,0
2018-02-25T03:25:33.604Z,0
2018-02-25T03:26:43.040Z,0
2018-02-25T03:27:52.742Z,0
2018-02-25T03:29:02.714Z,0
2018-02-25T03:30:11.911Z,0
2018-02-25T03:31:21.623Z,0
2018-02-25T03:32:31.327Z,0
2018-02-25T03:33:41.036Z,0
2018-02-25T03:34:50.467Z,0
2018-02-25T03:36:00.420Z,0
2018-02-25T03:37:10.115Z,0
2018-02-25T03:38:20.068Z,0
2018-02-25T03:39:29.749Z,0
2018-02-25T03:40:39.697Z,0
2018-02-25T03:41:49.650Z,0
2018-02-25T03:42:59.346Z,0
2018-02-25T03:44:09.030Z,0
2018-02-25T03:45:18.728Z,0
2018-02-25T03:46:28.421Z,0
2018-02-25T03:47:38.376Z,0
2018-02-25T03:48:48.056Z,0
2018-02-25T03:49:57.753Z,0
2018-02-25T03:51:06.922Z,0
2018-02-25T03:52:16.607Z,0
2018-02-25T03:53:26.553Z,0
2018-02-25T03:54:36.244Z,0
2018-02-25T03:55:46.197Z,0
2018-02-25T03:56:56.290Z,0
2018-02-25T03:58:05.971Z,0
2018-02-25T03:59:15.407Z,0
2018-02-25T04:00:25.347Z,0
2018-02-25T04:01:35.036Z,0
2018-02-25T04:02:45.235Z,0
2018-02-25T04:03:55.234Z,0
2018-02-25T04:05:05.198Z,0
2018-02-25T04:06:14.880Z,0
2018-02-25T04:07:24.570Z,0
2018-02-25T04:08:34.529Z,0
2018-02-25T04:09:44.493Z,0
2018-02-25T04:10:54.202Z,0
2018-02-25T04:12:04.147Z,0
2018-02-25T04:13:14.100Z,0
2018-02-25T04:14:23.794Z,0
2018-02-25T04:15:33.750Z,0
2018-02-25T04:16:43.707Z,0
2018-02-25T04:17:53.135Z,0
2018-02-25T04:19:03.091Z,0
2018-02-25T04:20:13.039Z,0
2018-02-25T04:21:22.985Z,0
2018-02-25T04:22:32.930Z,0
2018-02-25T04:23:42.610Z,0
2018-02-25T04:24:52.304Z,0
2018-02-25T04:26:01.996Z,0
2018-02-25T04:27:11.681Z,0
2018-02-25T04:28:21.630Z,0
2018-02-25T04:29:31.320Z,0
2018-02-25T04:30:41.019Z,0
2018-02-25T04:31:50.449Z,0
2018-02-25T04:33:00.436Z,0
2018-02-25T04:34:10.126Z,0
2018-02-25T04:35:19.812Z,0
2018-02-25T04:36:29.760Z,0
2018-02-25T04:37:39.711Z,0
2018-02-25T04:38:49.647Z,0
2018-02-25T04:39:59.598Z,0
2018-02-25T04:41:09.549Z,0
2018-02-25T04:42:19.510Z,0
2018-02-25T04:43:29.472Z,0
2018-02-25T04:44:39.163Z,0
2018-02-25T04:45:48.862Z,0
2018-02-25T04:46:58.299Z,0
2018-02-25T04:48:08.261Z,0
2018-02-25T04:49:17.437Z,0
2018-02-25T04:50:27.376Z,0
2018-02-25T04:51:37.321Z,0
2018-02-25T04:52:46.744Z,0
2018-02-25T04:53:56.435Z,0
2018-02-25T04:55:06.633Z,0
2018-02-25T04:56:16.317Z,0
2018-02-25T04:57:26.011Z,0
2018-02-25T04:58:35.957Z,0
2018-02-25T04:59:45.679Z,0
2018-02-25T05:00:55.108Z,0
2018-02-25T05:02:04.794Z,0
2018-02-25T05:03:13.967Z,0
2018-02-25T05:04:23.937Z,0
2018-02-25T05:05:33.639Z,0
2018-02-25T05:06:43.345Z,0
2018-02-25T05:07:53.035Z,0
2018-02-25T05:09:02.979Z,0
2018-02-25T05:10:12.683Z,0
2018-02-25T05:11:22.649Z,0
2018-02-25T05:12:32.595Z,0
2018-02-25T05:13:42.586Z,0
2018-02-25T05:14:52.597Z,0
2018-02-25T05:16:02.795Z,0
2018-02-25T05:17:12.484Z,0
2018-02-25T05:18:21.912Z,0
2018-02-25T05:19:31.852Z,0
2018-02-25T05:20:41.540Z,0
2018-02-25T05:21:50.961Z,0
2018-02-25T05:23:00.399Z,0
2018-02-25T05:24:10.370Z,0
2018-02-25T05:25:20.311Z,0
2018-02-25T05:26:30.009Z,0
2018-02-25T05:27:39.695Z,0
2018-02-25T05:28:49.660Z,0
2018-02-25T05:29:59.624Z,0
2018-02-25T05:31:09.574Z,0
2018-02-25T05:32:19.262Z,0
2018-02-25T05:33:29.206Z,0
2018-02-25T05:34:38.895Z,0
2018-02-25T05:35:48.588Z,0
2018-02-25T05:36:58.535Z,0
2018-02-25T05:38:08.488Z,0
2018-02-25T05:39:17.918Z,0
2018-02-25T05:40:27.866Z,0
2018-02-25T05:41:37.808Z,0
2018-02-25T05:42:47.749Z,0
2018-02-25T05:43:57.698Z,0
2018-02-25T05:45:07.394Z,0
2018-02-25T05:46:17.351Z,0
2018-02-25T05:47:27.292Z,0
2018-02-25T05:48:37.273Z,0
2018-02-25T05:49:47.231Z,0
2018-02-25T05:50:57.177Z,5
2018-02-25T05:52:07.133Z,5
2018-02-25T05:53:16.826Z,5
2018-02-25T05:54:25.995Z,5
2018-02-25T05:55:35.946Z,5
2018-02-25T05:56:45.668Z,10
2018-02-25T05:57:55.630Z,10
2018-02-25T05:59:05.335Z,10
2018-02-25T06:00:15.285Z,10
2018-02-25T06:01:24.971Z,15
2018-02-25T06:02:34.917Z,15
2018-02-25T06:03:44.869Z,20
2018-02-25T06:04:54.812Z,20
2018-02-25T06:06:04.500Z,20
2018-02-25T06:07:14.468Z,25
2018-02-25T06:08:24.428Z,25
2018-02-25T06:09:34.115Z,30
2018-02-25T06:10:43.801Z,30
2018-02-25T06:11:53.759Z,35
2018-02-25T06:13:03.188Z,35
2018-02-25T06:14:13.127Z,40
2018-02-25T06:15:23.172Z,40
2018-02-25T06:16:33.120Z,45
2018-02-25T06:17:43.067Z,45
2018-02-25T06:18:53.024Z,50
2018-02-25T06:20:02.981Z,55
2018-02-25T06:21:12.668Z,55
2018-02-25T06:22:22.366Z,60
2018-02-25T06:23:31.808Z,60
2018-02-25T06:24:41.772Z,65
2018-02-25T06:25:51.725Z,65
2018-02-25T06:27:01.416Z,70
2018-02-25T06:28:11.364Z,75
2018-02-25T06:29:21.312Z,80
2018-02-25T06:30:31.267Z,80
2018-02-25T06:31:41.216Z,80
2018-02-25T06:32:51.170Z,85
2018-02-25T06:34:01.118Z,90
2018-02-25T06:35:10.830Z,90
2018-02-25T06:36:20.781Z,95
2018-02-25T06:37:30.735Z,100
2018-02-25T06:38:40.699Z,100
2018-02-25T06:39:50.650Z,105
2018-02-25T06:41:00.595Z,105
2018-02-25T06:42:10.548Z,110
2018-02-25T06:43:20.530Z,115
2018-02-25T06:44:30.485Z,120
2018-02-25T06:45:40.438Z,120
2018-02-25T06:46:49.911Z,120
2018-02-25T06:47:59.987Z,125
2018-02-25T06:49:09.677Z,130
2018-02-25T06:50:19.108Z,130
2018-02-25T06:51:29.072Z,135
2018-02-25T06:52:38.503Z,135
2018-02-25T06:53:48.463Z,140
2018-02-25T06:54:58.150Z,145
2018-02-25T06:56:07.579Z,145
2018-02-25T06:57:17.265Z,145
2018-02-25T06:58:26.696Z,150
2018-02-25T06:59:36.436Z,150
2018-02-25T07:00:46.176Z,155
2018-02-25T07:01:56.120Z,160
2018-02-25T07:03:05.546Z,160
2018-02-25T07:04:15.236Z,160
2018-02-25T07:05:25.191Z,160
2018-02-25T07:06:34.882Z,165
2018-02-25T07:07:45.101Z,170
2018-02-25T07:08:54.790Z,170
2018-02-25T07:10:04.754Z,175
2018-02-25T07:11:14.854Z,175
2018-02-25T07:12:24.814Z,175
2018-02-25T07:13:34.505Z,180
2018-02-25T07:14:44.197Z,185
2018-02-25T07:15:53.901Z,185
2018-02-25T07:17:03.584Z,185
2018-02-25T07:18:13.025Z,190
2018-02-25T07:19:22.725Z,195
2018-02-25T07:20:32.156Z,195
2018-02-25T07:21:41.594Z,195
2018-02-25T07:22:51.296Z,200
2018-02-25T07:24:01.252Z,200
2018-02-25T07:25:11.217Z,210
2018-02-25T07:26:20.869Z,205
2018-02-25T07:27:30.034Z,210
2018-02-25T07:28:39.726Z,210
2018-02-25T07:29:49.156Z,225
2018-02-25T07:30:58.847Z,220
2018-02-25T07:32:08.808Z,220
2018-02-25T07:33:18.557Z,225
2018-02-25T07:34:28.267Z,225
2018-02-25T07:35:37.959Z,230
2018-02-25T07:36:47.708Z,235
2018-02-25T07:37:56.889Z,240
2018-02-25T07:39:06.835Z,235
2018-02-25T07:40:16.784Z,240
2018-02-25T07:41:26.753Z,245
2018-02-25T07:42:36.880Z,245
2018-02-25T07:43:46.070Z,245
2018-02-25T07:44:56.027Z,250
2018-02-25T07:46:05.973Z,260
2018-02-25T07:47:15.920Z,260
2018-02-25T07:48:25.675Z,255
2018-02-25T07:49:35.640Z,255
2018-02-25T07:50:45.603Z,265
2018-02-25T07:51:55.584Z,265
2018-02-25T07:53:05.545Z,265
2018-02-25T07:54:15.500Z,270
2018-02-25T07:55:25.203Z,270
2018-02-25T07:56:35.143Z,285
2018-02-25T07:57:44.871Z,280
2018-02-25T07:58:54.841Z,280
2018-02-25T08:00:04.809Z,285
2018-02-25T08:01:14.504Z,295
2018-02-25T08:02:24.524Z,295
2018-02-25T08:03:34.050Z,290
2018-02-25T08:04:44.007Z,295
2018-02-25T08:05:53.691Z,295
2018-02-25T08:07:03.375Z,305
2018-02-25T08:08:13.078Z,305
2018-02-25T08:09:23.064Z,305
2018-02-25T08:10:33.017Z,320
2018-02-25T08:11:42.741Z,305
2018-02-25T08:12:52.433Z,310
2018-02-25T08:14:01.887Z,330
2018-02-25T08:15:11.849Z,425
2018-02-25T08:16:21.020Z,455
2018-02-25T08:17:30.712Z,465
2018-02-25T08:18:40.674Z,420
2018-02-25T08:19:50.640Z,495
2018-02-25T08:21:00.591Z,495
2018-02-25T08:22:10.795Z,505
2018-02-25T08:23:20.514Z,520
2018-02-25T08:24:30.030Z,540
2018-02-25T08:25:39.997Z,535
2018-02-25T08:26:49.702Z,555
2018-02-25T08:27:59.398Z,560
2018-02-25T08:29:09.103Z,545
2018-02-25T08:30:19.232Z,540
2018-02-25T08:31:28.889Z,555
2018-02-25T08:32:38.846Z,555
2018-02-25T08:33:48.291Z,565
2018-02-25T08:34:57.721Z,560
2018-02-25T08:36:07.426Z,560
2018-02-25T08:37:17.129Z,575
2018-02-25T08:38:27.092Z,565
2018-02-25T08:39:36.805Z,520
2018-02-25T08:40:46.516Z,580
2018-02-25T08:41:56.535Z,585
2018-02-25T08:43:06.492Z,605
2018-02-25T08:44:16.188Z,570
2018-02-25T08:45:26.142Z,605
2018-02-25T08:46:35.853Z,605
2018-02-25T08:47:45.561Z,620
2018-02-25T08:48:55.276Z,535
2018-02-25T08:50:04.981Z,630
2018-02-25T08:51:14.936Z,640
2018-02-25T08:52:24.635Z,650
2018-02-25T08:53:34.601Z,670
2018-02-25T08:54:44.552Z,680
2018-02-25T08:55:54.515Z,685
2018-02-25T08:57:04.234Z,695
2018-02-25T08:58:14.198Z,695
2018-02-25T08:59:23.901Z,715
2018-02-25T09:00:33.882Z,725
2018-02-25T09:01:43.582Z,730
2018-02-25T09:02:53.555Z,735
2018-02-25T09:04:03.009Z,740
2018-02-25T09:05:12.710Z,740
2018-02-25T09:06:22.686Z,740
2018-02-25T09:07:32.392Z,755
2018-02-25T09:08:41.843Z,760
2018-02-25T09:09:51.289Z,780
2018-02-25T09:11:00.996Z,775
2018-02-25T09:12:10.950Z,775
2018-02-25T09:13:20.929Z,805
2018-02-25T09:14:30.624Z,815
2018-02-25T09:15:40.601Z,815
2018-02-25T09:16:50.324Z,805
2018-02-25T09:17:59.784Z,795
2018-02-25T09:19:09.491Z,765
2018-02-25T09:20:19.602Z,745
2018-02-25T09:21:29.066Z,740
2018-02-25T09:22:38.833Z,750
2018-02-25T09:23:48.541Z,725
2018-02-25T09:24:58.511Z,800
2018-02-25T09:26:08.231Z,785
2018-02-25T09:27:18.229Z,760
2018-02-25T09:28:27.950Z,770
2018-02-25T09:29:37.672Z,800
2018-02-25T09:30:47.126Z,815
2018-02-25T09:31:57.091Z,850
2018-02-25T09:33:06.523Z,885
2018-02-25T09:34:16.220Z,900
2018-02-25T09:35:25.933Z,895
2018-02-25T09:36:35.636Z,915
2018-02-25T09:37:45.616Z,920
2018-02-25T09:38:55.335Z,920
2018-02-25T09:40:05.325Z,945
2018-02-25T09:41:15.310Z,980
2018-02-25T09:42:25.063Z,965
2018-02-25T09:43:35.184Z,895
2018-02-25T09:44:45.149Z,915
2018-02-25T09:45:54.922Z,920
2018-02-25T09:47:04.365Z,905
2018-02-25T09:48:13.811Z,1010
2018-02-25T09:49:23.561Z,995
2018-02-25T09:50:33.008Z,985
2018-02-25T09:51:42.740Z,985
2018-02-25T09:52:52.731Z,1005
2018-02-25T09:54:02.443Z,1010
2018-02-25T09:55:12.151Z,1040
2018-02-25T09:56:21.859Z,1070
2018-02-25T09:57:31.574Z,1125
2018-02-25T09:58:41.054Z,1180
2018-02-25T09:59:50.257Z,1230
2018-02-25T10:01:00.230Z,1420
2018-02-25T10:02:09.692Z,1380
2018-02-25T10:03:19.656Z,1515
2018-02-25T10:04:29.363Z,1565
2018-02-25T10:05:39.343Z,1565
2018-02-25T10:06:49.303Z,1560
2018-02-25T10:07:59.336Z,1530
2018-02-25T10:09:09.107Z,1615
2018-02-25T10:10:18.556Z,1725
2018-02-25T10:11:28.282Z,1835
2018-02-25T10:12:38.253Z,1865
2018-02-25T10:13:48.253Z,1720
2018-02-25T10:14:57.706Z,1880
2018-02-25T10:16:07.430Z,1875
2018-02-25T10:17:17.410Z,1840
2018-02-25T10:18:27.368Z,1450
2018-02-25T10:19:36.864Z,1545
2018-02-25T10:20:46.597Z,1310
2018-02-25T10:21:56.564Z,1690
2018-02-25T10:23:06.017Z,1470
2018-02-25T10:24:15.975Z,1565
2018-02-25T10:25:25.950Z,1415
2018-02-25T10:26:35.397Z,1515
2018-02-25T10:27:45.137Z,1625
2018-02-25T10:28:54.848Z,1535
2018-02-25T10:30:04.825Z,1675
2018-02-25T10:31:14.805Z,1670
2018-02-25T10:32:24.249Z,1665
2018-02-25T10:33:34.222Z,1435
2018-02-25T10:34:44.193Z,2085
2018-02-25T10:35:54.161Z,1660
2018-02-25T10:37:04.143Z,1620
2018-02-25T10:38:13.861Z,1535
2018-02-25T10:39:23.617Z,2285
2018-02-25T10:40:33.610Z,1995
2018-02-25T10:41:43.332Z,1790
2018-02-25T10:42:53.308Z,1960
2018-02-25T10:44:03.033Z,1935
2018-02-25T10:45:12.748Z,1965
2018-02-25T10:46:22.761Z,1545
2018-02-25T10:47:32.467Z,2060
2018-02-25T10:48:41.909Z,1695
2018-02-25T10:49:51.884Z,1880
2018-02-25T10:51:01.350Z,2150
2018-02-25T10:52:10.555Z,1945
2018-02-25T10:53:20.527Z,1825
2018-02-25T10:54:30.581Z,2005
2018-02-25T10:55:40.316Z,1890
2018-02-25T10:56:49.764Z,2010
2018-02-25T10:57:59.473Z,2100
2018-02-25T10:59:09.466Z,2135
2018-02-25T11:00:19.216Z,2065
2018-02-25T11:01:28.667Z,2075
2018-02-25T11:02:38.657Z,2220
2018-02-25T11:03:48.375Z,2245
2018-02-25T11:04:58.104Z,2255
2018-02-25T11:06:07.817Z,2235
2018-02-25T11:07:17.801Z,2255
2018-02-25T11:08:27.535Z,2310
2018-02-25T11:09:37.511Z,2305
2018-02-25T11:10:47.214Z,2305
2018-02-25T11:11:56.943Z,2405
2018-02-25T11:13:06.907Z,2880
2018-02-25T11:14:16.352Z,2630
2018-02-25T11:15:26.416Z,2220
2018-02-25T11:16:36.470Z,2245
2018-02-25T11:17:46.172Z,2310
2018-02-25T11:18:56.165Z,2320
2018-02-25T11:20:05.881Z,2335
2018-02-25T11:21:15.356Z,2395
2018-02-25T11:22:25.097Z,2395
2018-02-25T11:23:34.817Z,2400
2018-02-25T11:24:44.276Z,2400
2018-02-25T11:25:53.985Z,2360
2018-02-25T11:27:03.963Z,2355
2018-02-25T11:28:13.687Z,2380
2018-02-25T11:29:23.672Z,2375
2018-02-25T11:30:33.398Z,2420
2018-02-25T11:31:43.595Z,2440
2018-02-25T11:32:53.331Z,2365
2018-02-25T11:34:03.038Z,2320
2018-02-25T11:35:12.752Z,2305
2018-02-25T11:36:22.747Z,2330
2018-02-25T11:37:32.451Z,2010
2018-02-25T11:38:42.165Z,2075
2018-02-25T11:39:52.139Z,2250
2018-02-25T11:41:02.118Z,1915
2018-02-25T11:42:11.582Z,2440
2018-02-25T11:43:21.609Z,2500
2018-02-25T11:44:31.614Z,2450
2018-02-25T11:45:40.805Z,2545
2018-02-25T11:46:50.534Z,2250
2018-02-25T11:48:00.253Z,2550
2018-02-25T11:49:09.707Z,2435
2018-02-25T11:50:19.682Z,2455
2018-02-25T11:51:29.391Z,2555
2018-02-25T11:52:39.135Z,2635
2018-02-25T11:53:48.855Z,2635
2018-02-25T11:54:58.575Z,2540
2018-02-25T11:56:08.283Z,2525
2018-02-25T11:57:18.003Z,2385
2018-02-25T11:58:27.730Z,2585
2018-02-25T11:59:37.446Z,2160
2018-02-25T12:00:47.421Z,2595
2018-02-25T12:01:57.394Z,2535
2018-02-25T12:03:06.865Z,2615
2018-02-25T12:04:16.589Z,2615
2018-02-25T12:05:26.306Z,2680
2018-02-25T12:06:36.025Z,2670
2018-02-25T12:07:46.009Z,2700
2018-02-25T12:08:55.718Z,2780
2018-02-25T12:10:05.807Z,2840
2018-02-25T12:11:15.544Z,2810
2018-02-25T12:12:25.522Z,2680
2018-02-25T12:13:35.242Z,2685
2018-02-25T12:14:45.211Z,1775
2018-02-25T12:15:54.679Z,2630
2018-02-25T12:17:04.649Z,2645
2018-02-25T12:18:14.376Z,2580
2018-02-25T12:19:24.099Z,2585
2018-02-25T12:20:33.908Z,2730
2018-02-25T12:21:43.168Z,2770
2018-02-25T12:22:52.911Z,2760
2018-02-25T12:24:02.642Z,2740
2018-02-25T12:25:12.361Z,2705
2018-02-25T12:26:21.567Z,2705
2018-02-25T12:27:31.299Z,2755
2018-02-25T12:28:41.278Z,2825
2018-02-25T12:29:51.000Z,2790
2018-02-25T12:31:00.991Z,2740
2018-02-25T12:32:10.987Z,2695
2018-02-25T12:33:20.701Z,2695
2018-02-25T12:34:30.680Z,2675
2018-02-25T12:35:40.392Z,2635
2018-02-25T12:36:50.379Z,2530
2018-02-25T12:38:00.402Z,2160
2018-02-25T12:39:10.278Z,1105
2018-02-25T12:40:20.277Z,2145
2018-02-25T12:41:30.014Z,1335
2018-02-25T12:42:39.201Z,2640
2018-02-25T12:43:49.173Z,920
2018-02-25T12:44:58.908Z,985
2018-02-25T12:46:08.627Z,720
2018-02-25T12:47:18.351Z,1185
2018-02-25T12:48:27.826Z,660
2018-02-25T12:49:37.534Z,695
2018-02-25T12:50:47.247Z,2685
2018-02-25T12:51:56.695Z,2755
2018-02-25T12:53:06.146Z,2725
2018-02-25T12:54:15.868Z,2715
2018-02-25T12:55:25.867Z,2690
2018-02-25T12:56:35.585Z,2260
2018-02-25T12:57:45.565Z,2580
2018-02-25T12:58:55.615Z,2615
2018-02-25T13:00:05.324Z,2660
2018-02-25T13:01:15.041Z,2735
2018-02-25T13:02:25.011Z,2785
2018-02-25T13:03:34.789Z,2770
2018-02-25T13:04:44.511Z,2285
2018-02-25T13:05:54.461Z,2115
2018-02-25T13:07:04.434Z,2765
2018-02-25T13:08:14.427Z,890
2018-02-25T13:09:24.142Z,2690
2018-02-25T13:10:33.610Z,2435
2018-02-25T13:11:43.588Z,2440
2018-02-25T13:12:53.306Z,2695
2018-02-25T13:14:03.293Z,2705
2018-02-25T13:15:13.016Z,2710
2018-02-25T13:16:22.998Z,2405
2018-02-25T13:17:32.971Z,2235
2018-02-25T13:18:42.962Z,915
2018-02-25T13:19:52.683Z,685
2018-02-25T13:21:02.416Z,1850
2018-02-25T13:22:12.405Z,790
2018-02-25T13:23:22.131Z,1730
2018-02-25T13:24:32.183Z,2730
2018-02-25T13:25:41.944Z,2680
2018-02-25T13:26:51.924Z,2190
2018-02-25T13:28:01.895Z,650
2018-02-25T13:29:11.615Z,2400
2018-02-25T13:30:21.574Z,2585
2018-02-25T13:31:31.560Z,2590
2018-02-25T13:32:41.528Z,1800
2018-02-25T13:33:51.246Z,2550
2018-02-25T13:35:00.949Z,2535
2018-02-25T13:36:10.926Z,2155
2018-02-25T13:37:20.912Z,2275
2018-02-25T13:38:30.630Z,1905
2018-02-25T13:39:40.608Z,2510
2018-02-25T13:40:50.331Z,2525
2018-02-25T13:42:00.299Z,2590
2018-02-25T13:43:09.785Z,2425
2018-02-25T13:44:19.766Z,2380
2018-02-25T13:45:29.473Z,2130
2018-02-25T13:46:38.924Z,2340
2018-02-25T13:47:48.374Z,2260
2018-02-25T13:48:57.580Z,1395
2018-02-25T13:50:07.295Z,990
2018-02-25T13:51:16.499Z,755
2018-02-25T13:52:26.505Z,860
2018-02-25T13:53:36.471Z,1320
2018-02-25T13:54:45.936Z,1120
2018-02-25T13:55:55.646Z,1100
2018-02-25T13:57:05.397Z,1880
2018-02-25T13:58:15.168Z,980
2018-02-25T13:59:24.629Z,2400
2018-02-25T14:00:34.335Z,2095
2018-02-25T14:01:44.328Z,2395
2018-02-25T14:02:54.305Z,2325
2018-02-25T14:04:04.278Z,2335
2018-02-25T14:05:14.240Z,2275
2018-02-25T14:06:23.963Z,2090
2018-02-25T14:07:33.941Z,2255
2018-02-25T14:08:43.657Z,2270
2018-02-25T14:09:53.374Z,2405
2018-02-25T14:11:03.088Z,2440
2018-02-25T14:12:13.081Z,2395
2018-02-25T14:13:22.794Z,2185
2018-02-25T14:14:32.808Z,1275
2018-02-25T14:15:42.510Z,1475
2018-02-25T14:16:51.952Z,2035
2018-02-25T14:18:01.141Z,2005
2018-02-25T14:19:11.124Z,1790
2018-02-25T14:20:21.094Z,1165
2018-02-25T14:21:31.054Z,735
2018-02-25T14:22:41.039Z,2145
2018-02-25T14:23:50.504Z,2200
2018-02-25T14:25:00.241Z,945
2018-02-25T14:26:10.207Z,2185
2018-02-25T14:27:19.665Z,2070
2018-02-25T14:28:29.374Z,1520
2018-02-25T14:29:38.824Z,735
2018-02-25T14:30:48.789Z,1515
2018-02-25T14:31:58.493Z,775
2018-02-25T14:33:08.458Z,870
2018-02-25T14:34:18.235Z,915
2018-02-25T14:35:28.200Z,705
2018-02-25T14:36:37.390Z,820
2018-02-25T14:37:47.104Z,1380
2018-02-25T14:38:56.552Z,670
2018-02-25T14:40:06.518Z,630
2018-02-25T14:41:16.488Z,620
2018-02-25T14:42:25.931Z,605
2018-02-25T14:43:36.370Z,585
2018-02-25T14:44:46.100Z,575
2018-02-25T14:45:55.803Z,565
2018-02-25T14:47:06.030Z,550
2018-02-25T14:48:15.758Z,545
2018-02-25T14:49:25.733Z,595
2018-02-25T14:50:35.448Z,680
2018-02-25T14:51:45.151Z,1040
2018-02-25T14:52:55.118Z,1220
2018-02-25T14:54:05.098Z,1330
2018-02-25T14:55:14.545Z,1180
2018-02-25T14:56:24.263Z,605
2018-02-25T14:57:34.248Z,545
2018-02-25T14:58:43.973Z,575
2018-02-25T14:59:53.953Z,645
2018-02-25T15:01:03.923Z,1355
2018-02-25T15:02:13.888Z,855
2018-02-25T15:03:23.336Z,910
2018-02-25T15:04:33.052Z,425
2018-02-25T15:05:42.778Z,410
2018-02-25T15:06:52.758Z,395
2018-02-25T15:08:02.740Z,385
2018-02-25T15:09:12.471Z,385
2018-02-25T15:10:21.926Z,760
2018-02-25T15:11:31.953Z,1125
2018-02-25T15:12:41.405Z,1215
2018-02-25T15:13:51.383Z,1145
2018-02-25T15:15:01.107Z,1015
2018-02-25T15:16:11.081Z,1095
2018-02-25T15:17:20.540Z,370
2018-02-25T15:18:30.523Z,1060
2018-02-25T15:19:40.497Z,1090
2018-02-25T15:20:50.220Z,1085
2018-02-25T15:21:59.949Z,955
2018-02-25T15:23:09.926Z,580
2018-02-25T15:24:19.382Z,665
2018-02-25T15:25:29.352Z,275
2018-02-25T15:26:39.325Z,270
2018-02-25T15:27:49.027Z,260
2018-02-25T15:28:58.738Z,250
2018-02-25T15:30:08.743Z,240
2018-02-25T15:31:18.461Z,230
2018-02-25T15:32:27.648Z,225
2018-02-25T15:33:37.625Z,225
2018-02-25T15:34:47.596Z,225
2018-02-25T15:35:57.667Z,225
2018-02-25T15:37:07.117Z,225
2018-02-25T15:38:17.099Z,225
2018-02-25T15:39:26.800Z,225
2018-02-25T15:40:36.257Z,225
2018-02-25T15:41:46.236Z,215
2018-02-25T15:42:55.695Z,310
2018-02-25T15:44:04.956Z,205
2018-02-25T15:45:15.009Z,205
2018-02-25T15:46:24.990Z,205
2018-02-25T15:47:34.708Z,200
2018-02-25T15:48:44.406Z,205
2018-02-25T15:49:54.389Z,195
2018-02-25T15:51:04.107Z,185
2018-02-25T15:52:13.888Z,170
2018-02-25T15:53:23.886Z,150
2018-02-25T15:54:33.616Z,130
2018-02-25T15:55:43.578Z,120
2018-02-25T15:56:53.554Z,110
2018-02-25T15:58:03.524Z,100
2018-02-25T15:59:13.518Z,90
2018-02-25T16:00:23.472Z,80
2018-02-25T16:01:32.948Z,75
2018-02-25T16:02:42.394Z,70
2018-02-25T16:03:52.364Z,70
2018-02-25T16:05:02.329Z,65
2018-02-25T16:06:12.332Z,65
2018-02-25T16:07:22.036Z,60
2018-02-25T16:08:31.750Z,60
2018-02-25T16:09:41.714Z,55
2018-02-25T16:10:51.432Z,55
2018-02-25T16:12:00.884Z,55
2018-02-25T16:13:10.592Z,55
2018-02-25T16:14:20.573Z,55
2018-02-25T16:15:30.274Z,55
2018-02-25T16:16:39.970Z,55
2018-02-25T16:17:49.687Z,55